sensor_id;sensor_type;location;lat;lon;timestamp;P1;durP1;ratioP1;P2;durP2;ratioP2
48703;SDS011;34502;51.296;16.918;2022-12-29T00:01:30;5.93;;;3.20;;
48703;SDS011;34502;51.296;16.918;2022-12-29T00:03:57;8.65;;;3.60;;
48703;SDS011;34502;51.296;16.918;2022-12-29T00:06:23;5.45;;;3.25;;
48703;SDS011;34502;51.296;16.918;2022-12-29T00:08:50;5.05;;;3.20;;
48703;SDS011;34502;51.296;16.918;2022-12-29T00:11:18;5.07;;;2.97;;
48703;SDS011;34502;51.296;16.918;2022-12-29T00:13:46;9.20;;;3.20;;
48703;SDS011;34502;51.296;16.918;2022-12-29T00:16:31;7.05;;;3.25;;
48703;SDS011;34502;51.296;16.918;2022-12-29T00:18:58;5.97;;;2.60;;
48703;SDS011;34502;51.296;16.918;2022-12-29T00:21:24;6.38;;;2.78;;
48703;SDS011;34502;51.296;16.918;2022-12-29T00:24:11;5.65;;;3.10;;
48703;SDS011;34502;51.296;16.918;2022-12-29T00:26:40;6.15;;;3.13;;
48703;SDS011;34502;51.296;16.918;2022-12-29T00:29:24;5.47;;;3.05;;
48703;SDS011;34502;51.296;16.918;2022-12-29T00:32:09;4.13;;;2.80;;
48703;SDS011;34502;51.296;16.918;2022-12-29T00:34:54;7.45;;;3.28;;
48703;SDS011;34502;51.296;16.918;2022-12-29T00:37:38;6.97;;;3.25;;
48703;SDS011;34502;51.296;16.918;2022-12-29T00:40:25;9.18;;;3.42;;
48703;SDS011;34502;51.296;16.918;2022-12-29T00:43:10;6.07;;;3.60;;
48703;SDS011;34502;51.296;16.918;2022-12-29T00:45:54;4.53;;;3.50;;
48703;SDS011;34502;51.296;16.918;2022-12-29T00:48:21;10.82;;;4.20;;
48703;SDS011;34502;51.296;16.918;2022-12-29T00:51:14;6.82;;;3.58;;
48703;SDS011;34502;51.296;16.918;2022-12-29T00:53:40;7.05;;;4.10;;
48703;SDS011;34502;51.296;16.918;2022-12-29T00:56:06;6.10;;;3.55;;
48703;SDS011;34502;51.296;16.918;2022-12-29T00:58:35;6.72;;;3.45;;
48703;SDS011;34502;51.296;16.918;2022-12-29T01:01:03;5.55;;;3.47;;
48703;SDS011;34502;51.296;16.918;2022-12-29T01:03:31;4.20;;;2.60;;
48703;SDS011;34502;51.296;16.918;2022-12-29T01:06:02;4.15;;;2.70;;
48703;SDS011;34502;51.296;16.918;2022-12-29T01:08:29;5.03;;;2.70;;
48703;SDS011;34502;51.296;16.918;2022-12-29T01:10:59;5.13;;;2.67;;
48703;SDS011;34502;51.296;16.918;2022-12-29T01:13:26;4.03;;;2.35;;
48703;SDS011;34502;51.296;16.918;2022-12-29T01:15:53;4.82;;;2.90;;
48703;SDS011;34502;51.296;16.918;2022-12-29T01:18:19;4.60;;;2.30;;
48703;SDS011;34502;51.296;16.918;2022-12-29T01:20:45;5.95;;;3.00;;
48703;SDS011;34502;51.296;16.918;2022-12-29T01:23:11;3.55;;;2.60;;
48703;SDS011;34502;51.296;16.918;2022-12-29T01:25:38;8.20;;;3.10;;
48703;SDS011;34502;51.296;16.918;2022-12-29T01:28:04;5.43;;;3.00;;
48703;SDS011;34502;51.296;16.918;2022-12-29T01:30:32;5.00;;;2.40;;
48703;SDS011;34502;51.296;16.918;2022-12-29T01:32:59;3.63;;;2.38;;
48703;SDS011;34502;51.296;16.918;2022-12-29T01:35:25;5.88;;;2.50;;
48703;SDS011;34502;51.296;16.918;2022-12-29T01:37:51;4.85;;;2.65;;
48703;SDS011;34502;51.296;16.918;2022-12-29T01:40:17;5.88;;;3.03;;
48703;SDS011;34502;51.296;16.918;2022-12-29T01:42:43;6.45;;;2.85;;
48703;SDS011;34502;51.296;16.918;2022-12-29T01:47:41;4.35;;;2.28;;
48703;SDS011;34502;51.296;16.918;2022-12-29T01:52:44;3.47;;;2.45;;
48703;SDS011;34502;51.296;16.918;2022-12-29T01:55:15;4.93;;;2.42;;
48703;SDS011;34502;51.296;16.918;2022-12-29T01:57:42;3.50;;;2.40;;
48703;SDS011;34502;51.296;16.918;2022-12-29T02:00:12;4.53;;;2.63;;
48703;SDS011;34502;51.296;16.918;2022-12-29T02:02:39;5.75;;;2.58;;
48703;SDS011;34502;51.296;16.918;2022-12-29T02:05:10;5.93;;;2.75;;
48703;SDS011;34502;51.296;16.918;2022-12-29T02:07:46;4.78;;;2.17;;
48703;SDS011;34502;51.296;16.918;2022-12-29T02:10:13;4.78;;;2.25;;
48703;SDS011;34502;51.296;16.918;2022-12-29T02:12:39;4.00;;;2.42;;
48703;SDS011;34502;51.296;16.918;2022-12-29T02:15:06;5.60;;;2.35;;
48703;SDS011;34502;51.296;16.918;2022-12-29T02:18:10;5.38;;;2.75;;
48703;SDS011;34502;51.296;16.918;2022-12-29T02:31:41;3.70;;;2.20;;
48703;SDS011;34502;51.296;16.918;2022-12-29T02:39:41;5.07;;;3.22;;
48703;SDS011;34502;51.296;16.918;2022-12-29T02:42:24;3.83;;;2.35;;
48703;SDS011;34502;51.296;16.918;2022-12-29T02:45:11;3.13;;;2.50;;
48703;SDS011;34502;51.296;16.918;2022-12-29T02:53:28;3.15;;;2.15;;
48703;SDS011;34502;51.296;16.918;2022-12-29T02:56:15;3.28;;;2.10;;
48703;SDS011;34502;51.296;16.918;2022-12-29T02:58:41;4.63;;;2.72;;
48703;SDS011;34502;51.296;16.918;2022-12-29T03:09:31;3.17;;;2.15;;
48703;SDS011;34502;51.296;16.918;2022-12-29T03:18:19;4.63;;;2.03;;
48703;SDS011;34502;51.296;16.918;2022-12-29T03:20:41;3.00;;;1.88;;
48703;SDS011;34502;51.296;16.918;2022-12-29T03:23:13;4.18;;;1.95;;
48703;SDS011;34502;51.296;16.918;2022-12-29T03:25:43;4.68;;;2.00;;
48703;SDS011;34502;51.296;16.918;2022-12-29T03:28:13;2.78;;;2.17;;
48703;SDS011;34502;51.296;16.918;2022-12-29T03:30:44;3.25;;;2.00;;
48703;SDS011;34502;51.296;16.918;2022-12-29T03:33:12;2.65;;;2.08;;
48703;SDS011;34502;51.296;16.918;2022-12-29T03:35:40;5.40;;;2.33;;
48703;SDS011;34502;51.296;16.918;2022-12-29T03:38:09;5.03;;;2.20;;
48703;SDS011;34502;51.296;16.918;2022-12-29T03:40:45;3.90;;;2.20;;
48703;SDS011;34502;51.296;16.918;2022-12-29T03:45:42;4.40;;;1.70;;
48703;SDS011;34502;51.296;16.918;2022-12-29T03:48:09;3.08;;;2.30;;
48703;SDS011;34502;51.296;16.918;2022-12-29T03:50:35;3.97;;;2.10;;
48703;SDS011;34502;51.296;16.918;2022-12-29T03:53:01;3.22;;;1.90;;
48703;SDS011;34502;51.296;16.918;2022-12-29T03:55:27;3.53;;;2.30;;
48703;SDS011;34502;51.296;16.918;2022-12-29T03:57:53;4.50;;;2.03;;
48703;SDS011;34502;51.296;16.918;2022-12-29T04:00:19;3.33;;;2.20;;
48703;SDS011;34502;51.296;16.918;2022-12-29T04:02:45;5.90;;;2.38;;
48703;SDS011;34502;51.296;16.918;2022-12-29T04:05:11;3.30;;;1.95;;
48703;SDS011;34502;51.296;16.918;2022-12-29T04:07:38;4.75;;;2.10;;
48703;SDS011;34502;51.296;16.918;2022-12-29T04:10:04;3.40;;;1.60;;
48703;SDS011;34502;51.296;16.918;2022-12-29T04:12:30;3.35;;;2.15;;
48703;SDS011;34502;51.296;16.918;2022-12-29T04:14:56;2.50;;;1.73;;
48703;SDS011;34502;51.296;16.918;2022-12-29T04:17:22;3.55;;;1.92;;
48703;SDS011;34502;51.296;16.918;2022-12-29T04:19:48;3.45;;;1.88;;
48703;SDS011;34502;51.296;16.918;2022-12-29T04:22:15;3.03;;;1.48;;
48703;SDS011;34502;51.296;16.918;2022-12-29T04:24:41;2.17;;;1.70;;
48703;SDS011;34502;51.296;16.918;2022-12-29T04:27:07;2.60;;;1.63;;
48703;SDS011;34502;51.296;16.918;2022-12-29T04:29:33;2.50;;;1.70;;
48703;SDS011;34502;51.296;16.918;2022-12-29T04:32:00;3.35;;;1.70;;
48703;SDS011;34502;51.296;16.918;2022-12-29T04:34:26;2.13;;;1.60;;
48703;SDS011;34502;51.296;16.918;2022-12-29T04:36:52;5.15;;;2.10;;
48703;SDS011;34502;51.296;16.918;2022-12-29T04:39:18;3.72;;;2.03;;
48703;SDS011;34502;51.296;16.918;2022-12-29T04:41:44;3.78;;;2.67;;
48703;SDS011;34502;51.296;16.918;2022-12-29T04:44:11;3.55;;;1.95;;
48703;SDS011;34502;51.296;16.918;2022-12-29T04:46:37;5.43;;;2.47;;
48703;SDS011;34502;51.296;16.918;2022-12-29T04:49:03;3.88;;;2.00;;
48703;SDS011;34502;51.296;16.918;2022-12-29T04:51:33;3.65;;;1.70;;
48703;SDS011;34502;51.296;16.918;2022-12-29T04:53:59;2.05;;;1.85;;
48703;SDS011;34502;51.296;16.918;2022-12-29T04:56:25;3.38;;;1.83;;
48703;SDS011;34502;51.296;16.918;2022-12-29T04:58:52;4.07;;;2.00;;
48703;SDS011;34502;51.296;16.918;2022-12-29T05:01:18;2.65;;;1.50;;
48703;SDS011;34502;51.296;16.918;2022-12-29T05:03:44;3.40;;;1.48;;
48703;SDS011;34502;51.296;16.918;2022-12-29T05:06:10;1.77;;;1.60;;
48703;SDS011;34502;51.296;16.918;2022-12-29T05:08:36;3.65;;;2.53;;
48703;SDS011;34502;51.296;16.918;2022-12-29T05:11:03;3.53;;;2.00;;
48703;SDS011;34502;51.296;16.918;2022-12-29T05:13:30;3.65;;;1.90;;
48703;SDS011;34502;51.296;16.918;2022-12-29T05:15:56;2.67;;;1.77;;
48703;SDS011;34502;51.296;16.918;2022-12-29T05:18:22;5.55;;;2.08;;
48703;SDS011;34502;51.296;16.918;2022-12-29T05:20:48;4.88;;;1.73;;
48703;SDS011;34502;51.296;16.918;2022-12-29T05:23:14;3.83;;;2.30;;
48703;SDS011;34502;51.296;16.918;2022-12-29T05:25:41;2.83;;;1.80;;
48703;SDS011;34502;51.296;16.918;2022-12-29T05:28:08;2.35;;;1.67;;
48703;SDS011;34502;51.296;16.918;2022-12-29T05:30:34;5.25;;;2.33;;
48703;SDS011;34502;51.296;16.918;2022-12-29T05:33:00;3.53;;;1.85;;
48703;SDS011;34502;51.296;16.918;2022-12-29T05:35:26;2.15;;;1.85;;
48703;SDS011;34502;51.296;16.918;2022-12-29T05:37:52;2.40;;;1.98;;
48703;SDS011;34502;51.296;16.918;2022-12-29T05:40:18;2.15;;;1.50;;
48703;SDS011;34502;51.296;16.918;2022-12-29T05:42:44;2.47;;;1.70;;
48703;SDS011;34502;51.296;16.918;2022-12-29T05:45:10;2.63;;;2.00;;
48703;SDS011;34502;51.296;16.918;2022-12-29T05:47:37;4.65;;;2.03;;
48703;SDS011;34502;51.296;16.918;2022-12-29T05:50:03;4.18;;;1.48;;
48703;SDS011;34502;51.296;16.918;2022-12-29T05:52:29;2.55;;;1.70;;
48703;SDS011;34502;51.296;16.918;2022-12-29T05:54:55;3.45;;;2.00;;
48703;SDS011;34502;51.296;16.918;2022-12-29T05:57:21;2.58;;;1.65;;
48703;SDS011;34502;51.296;16.918;2022-12-29T05:59:47;2.45;;;1.65;;
48703;SDS011;34502;51.296;16.918;2022-12-29T06:02:13;5.70;;;1.73;;
48703;SDS011;34502;51.296;16.918;2022-12-29T06:04:39;3.35;;;1.98;;
48703;SDS011;34502;51.296;16.918;2022-12-29T06:07:05;3.67;;;1.88;;
48703;SDS011;34502;51.296;16.918;2022-12-29T06:09:32;2.15;;;1.45;;
48703;SDS011;34502;51.296;16.918;2022-12-29T06:11:58;2.78;;;1.77;;
48703;SDS011;34502;51.296;16.918;2022-12-29T06:14:24;2.85;;;1.80;;
48703;SDS011;34502;51.296;16.918;2022-12-29T06:16:50;4.88;;;1.92;;
48703;SDS011;34502;51.296;16.918;2022-12-29T06:19:16;2.33;;;1.88;;
48703;SDS011;34502;51.296;16.918;2022-12-29T06:21:42;2.45;;;1.77;;
48703;SDS011;34502;51.296;16.918;2022-12-29T06:24:08;5.10;;;2.00;;
48703;SDS011;34502;51.296;16.918;2022-12-29T06:26:35;4.10;;;2.08;;
48703;SDS011;34502;51.296;16.918;2022-12-29T06:29:02;4.80;;;2.50;;
48703;SDS011;34502;51.296;16.918;2022-12-29T06:31:28;3.97;;;2.25;;
48703;SDS011;34502;51.296;16.918;2022-12-29T06:33:54;4.53;;;1.98;;
48703;SDS011;34502;51.296;16.918;2022-12-29T06:36:20;3.83;;;1.90;;
48703;SDS011;34502;51.296;16.918;2022-12-29T06:38:46;3.20;;;2.00;;
48703;SDS011;34502;51.296;16.918;2022-12-29T06:41:12;4.55;;;2.00;;
48703;SDS011;34502;51.296;16.918;2022-12-29T06:43:38;3.97;;;2.45;;
48703;SDS011;34502;51.296;16.918;2022-12-29T06:46:05;3.40;;;2.15;;
48703;SDS011;34502;51.296;16.918;2022-12-29T06:48:31;4.55;;;2.42;;
48703;SDS011;34502;51.296;16.918;2022-12-29T06:50:57;6.45;;;2.20;;
48703;SDS011;34502;51.296;16.918;2022-12-29T06:53:23;3.05;;;2.53;;
48703;SDS011;34502;51.296;16.918;2022-12-29T06:55:49;4.35;;;2.30;;
48703;SDS011;34502;51.296;16.918;2022-12-29T06:58:15;5.10;;;2.53;;
48703;SDS011;34502;51.296;16.918;2022-12-29T07:00:41;5.30;;;2.70;;
48703;SDS011;34502;51.296;16.918;2022-12-29T07:03:07;3.83;;;2.38;;
48703;SDS011;34502;51.296;16.918;2022-12-29T07:05:34;3.58;;;2.33;;
48703;SDS011;34502;51.296;16.918;2022-12-29T07:08:00;5.35;;;2.65;;
48703;SDS011;34502;51.296;16.918;2022-12-29T07:10:26;4.93;;;2.50;;
48703;SDS011;34502;51.296;16.918;2022-12-29T07:12:53;6.78;;;4.22;;
48703;SDS011;34502;51.296;16.918;2022-12-29T07:15:19;8.00;;;4.90;;
48703;SDS011;34502;51.296;16.918;2022-12-29T07:17:45;7.32;;;4.88;;
48703;SDS011;34502;51.296;16.918;2022-12-29T07:20:11;6.53;;;3.78;;
48703;SDS011;34502;51.296;16.918;2022-12-29T07:22:37;7.45;;;3.83;;
48703;SDS011;34502;51.296;16.918;2022-12-29T07:25:03;5.25;;;2.83;;
48703;SDS011;34502;51.296;16.918;2022-12-29T07:27:30;5.88;;;3.22;;
48703;SDS011;34502;51.296;16.918;2022-12-29T07:29:56;5.22;;;3.22;;
48703;SDS011;34502;51.296;16.918;2022-12-29T07:32:22;5.75;;;3.00;;
48703;SDS011;34502;51.296;16.918;2022-12-29T07:34:48;4.65;;;2.63;;
48703;SDS011;34502;51.296;16.918;2022-12-29T07:37:15;2.92;;;2.33;;
48703;SDS011;34502;51.296;16.918;2022-12-29T07:39:41;4.05;;;2.80;;
48703;SDS011;34502;51.296;16.918;2022-12-29T07:42:07;6.45;;;3.00;;
48703;SDS011;34502;51.296;16.918;2022-12-29T07:44:34;6.53;;;2.70;;
48703;SDS011;34502;51.296;16.918;2022-12-29T07:47:01;7.63;;;3.50;;
48703;SDS011;34502;51.296;16.918;2022-12-29T07:49:27;5.07;;;3.65;;
48703;SDS011;34502;51.296;16.918;2022-12-29T07:51:53;5.35;;;3.10;;
48703;SDS011;34502;51.296;16.918;2022-12-29T07:54:20;4.95;;;3.03;;
48703;SDS011;34502;51.296;16.918;2022-12-29T07:56:47;4.30;;;2.95;;
48703;SDS011;34502;51.296;16.918;2022-12-29T07:59:13;5.45;;;2.53;;
48703;SDS011;34502;51.296;16.918;2022-12-29T08:01:40;5.97;;;2.75;;
48703;SDS011;34502;51.296;16.918;2022-12-29T08:04:06;8.32;;;3.00;;
48703;SDS011;34502;51.296;16.918;2022-12-29T08:06:32;5.18;;;2.60;;
48703;SDS011;34502;51.296;16.918;2022-12-29T08:08:58;4.20;;;2.67;;
48703;SDS011;34502;51.296;16.918;2022-12-29T08:11:25;4.93;;;2.90;;
48703;SDS011;34502;51.296;16.918;2022-12-29T08:13:52;4.38;;;3.10;;
48703;SDS011;34502;51.296;16.918;2022-12-29T08:16:18;5.22;;;2.88;;
48703;SDS011;34502;51.296;16.918;2022-12-29T08:18:44;5.55;;;2.78;;
48703;SDS011;34502;51.296;16.918;2022-12-29T08:21:10;4.30;;;3.15;;
48703;SDS011;34502;51.296;16.918;2022-12-29T08:23:36;4.00;;;2.55;;
48703;SDS011;34502;51.296;16.918;2022-12-29T08:26:03;6.15;;;2.95;;
48703;SDS011;34502;51.296;16.918;2022-12-29T08:28:30;6.13;;;2.83;;
48703;SDS011;34502;51.296;16.918;2022-12-29T08:30:57;7.13;;;3.72;;
48703;SDS011;34502;51.296;16.918;2022-12-29T08:33:24;4.25;;;3.38;;
48703;SDS011;34502;51.296;16.918;2022-12-29T08:35:50;5.38;;;2.90;;
48703;SDS011;34502;51.296;16.918;2022-12-29T08:38:17;4.45;;;2.03;;
48703;SDS011;34502;51.296;16.918;2022-12-29T08:40:43;7.93;;;2.97;;
48703;SDS011;34502;51.296;16.918;2022-12-29T08:43:09;3.92;;;2.55;;
48703;SDS011;34502;51.296;16.918;2022-12-29T08:45:35;4.53;;;2.70;;
48703;SDS011;34502;51.296;16.918;2022-12-29T08:48:01;4.05;;;2.65;;
48703;SDS011;34502;51.296;16.918;2022-12-29T08:50:27;5.18;;;2.95;;
48703;SDS011;34502;51.296;16.918;2022-12-29T08:52:54;3.70;;;2.85;;
48703;SDS011;34502;51.296;16.918;2022-12-29T08:55:20;4.72;;;3.30;;
48703;SDS011;34502;51.296;16.918;2022-12-29T08:57:46;4.80;;;3.05;;
48703;SDS011;34502;51.296;16.918;2022-12-29T09:00:12;6.97;;;3.92;;
48703;SDS011;34502;51.296;16.918;2022-12-29T09:02:39;5.57;;;2.97;;
48703;SDS011;34502;51.296;16.918;2022-12-29T09:05:06;4.82;;;3.03;;
48703;SDS011;34502;51.296;16.918;2022-12-29T09:07:32;5.43;;;3.28;;
48703;SDS011;34502;51.296;16.918;2022-12-29T09:09:58;6.15;;;3.15;;
48703;SDS011;34502;51.296;16.918;2022-12-29T09:12:24;6.03;;;3.25;;
48703;SDS011;34502;51.296;16.918;2022-12-29T09:14:51;6.45;;;3.10;;
48703;SDS011;34502;51.296;16.918;2022-12-29T09:17:17;6.53;;;2.70;;
48703;SDS011;34502;51.296;16.918;2022-12-29T09:20:02;3.45;;;2.75;;
48703;SDS011;34502;51.296;16.918;2022-12-29T09:22:28;6.20;;;2.90;;
48703;SDS011;34502;51.296;16.918;2022-12-29T09:24:55;5.93;;;3.25;;
48703;SDS011;34502;51.296;16.918;2022-12-29T09:27:21;6.07;;;3.78;;
48703;SDS011;34502;51.296;16.918;2022-12-29T09:29:47;8.30;;;5.35;;
48703;SDS011;34502;51.296;16.918;2022-12-29T09:32:13;9.55;;;5.32;;
48703;SDS011;34502;51.296;16.918;2022-12-29T09:34:39;12.63;;;7.05;;
48703;SDS011;34502;51.296;16.918;2022-12-29T09:37:05;10.75;;;5.80;;
48703;SDS011;34502;51.296;16.918;2022-12-29T09:39:31;9.60;;;4.78;;
48703;SDS011;34502;51.296;16.918;2022-12-29T09:42:18;6.50;;;4.15;;
48703;SDS011;34502;51.296;16.918;2022-12-29T09:47:30;6.55;;;3.38;;
48703;SDS011;34502;51.296;16.918;2022-12-29T09:49:57;4.57;;;2.75;;
48703;SDS011;34502;51.296;16.918;2022-12-29T09:52:42;6.00;;;3.27;;
48703;SDS011;34502;51.296;16.918;2022-12-29T09:55:38;4.38;;;2.30;;
48703;SDS011;34502;51.296;16.918;2022-12-29T09:58:11;4.85;;;2.67;;
48703;SDS011;34502;51.296;16.918;2022-12-29T10:00:50;3.88;;;2.72;;
48703;SDS011;34502;51.296;16.918;2022-12-29T10:03:24;5.15;;;2.78;;
48703;SDS011;34502;51.296;16.918;2022-12-29T10:11:17;7.22;;;3.60;;
48703;SDS011;34502;51.296;16.918;2022-12-29T10:14:05;7.03;;;3.85;;
48703;SDS011;34502;51.296;16.918;2022-12-29T10:21:56;6.93;;;4.30;;
48703;SDS011;34502;51.296;16.918;2022-12-29T10:24:27;8.15;;;4.60;;
48703;SDS011;34502;51.296;16.918;2022-12-29T10:26:54;13.05;;;4.25;;
48703;SDS011;34502;51.296;16.918;2022-12-29T10:29:33;4.82;;;3.63;;
48703;SDS011;34502;51.296;16.918;2022-12-29T10:32:36;6.85;;;3.90;;
48703;SDS011;34502;51.296;16.918;2022-12-29T10:35:22;7.18;;;4.10;;
48703;SDS011;34502;51.296;16.918;2022-12-29T10:43:01;6.40;;;3.10;;
48703;SDS011;34502;51.296;16.918;2022-12-29T10:45:49;6.15;;;2.78;;
48703;SDS011;34502;51.296;16.918;2022-12-29T10:48:23;6.28;;;3.03;;
48703;SDS011;34502;51.296;16.918;2022-12-29T10:50:53;3.78;;;2.88;;
48703;SDS011;34502;51.296;16.918;2022-12-29T10:53:23;8.27;;;4.63;;
48703;SDS011;34502;51.296;16.918;2022-12-29T10:55:52;6.85;;;4.43;;
48703;SDS011;34502;51.296;16.918;2022-12-29T10:58:18;6.88;;;4.28;;
48703;SDS011;34502;51.296;16.918;2022-12-29T11:00:49;6.20;;;3.00;;
48703;SDS011;34502;51.296;16.918;2022-12-29T11:03:25;5.75;;;3.42;;
48703;SDS011;34502;51.296;16.918;2022-12-29T11:06:13;6.32;;;3.20;;
48703;SDS011;34502;51.296;16.918;2022-12-29T11:08:45;7.07;;;3.00;;
48703;SDS011;34502;51.296;16.918;2022-12-29T11:11:25;3.38;;;2.70;;
48703;SDS011;34502;51.296;16.918;2022-12-29T11:16:42;4.20;;;2.40;;
48703;SDS011;34502;51.296;16.918;2022-12-29T11:19:19;4.45;;;2.70;;
48703;SDS011;34502;51.296;16.918;2022-12-29T11:21:47;4.60;;;3.00;;
48703;SDS011;34502;51.296;16.918;2022-12-29T11:24:31;4.13;;;2.70;;
48703;SDS011;34502;51.296;16.918;2022-12-29T11:29:59;6.57;;;2.95;;
48703;SDS011;34502;51.296;16.918;2022-12-29T11:32:26;4.65;;;2.88;;
48703;SDS011;34502;51.296;16.918;2022-12-29T11:34:55;5.38;;;2.85;;
48703;SDS011;34502;51.296;16.918;2022-12-29T11:39:57;4.60;;;2.72;;
48703;SDS011;34502;51.296;16.918;2022-12-29T11:45:24;4.78;;;2.67;;
48703;SDS011;34502;51.296;16.918;2022-12-29T11:48:01;6.18;;;2.38;;
48703;SDS011;34502;51.296;16.918;2022-12-29T11:50:39;5.15;;;2.45;;
48703;SDS011;34502;51.296;16.918;2022-12-29T11:55:56;5.25;;;2.50;;
48703;SDS011;34502;51.296;16.918;2022-12-29T11:58:29;8.25;;;2.53;;
48703;SDS011;34502;51.296;16.918;2022-12-29T12:00:58;6.47;;;3.75;;
48703;SDS011;34502;51.296;16.918;2022-12-29T12:03:26;5.32;;;3.10;;
48703;SDS011;34502;51.296;16.918;2022-12-29T12:06:03;7.07;;;3.80;;
48703;SDS011;34502;51.296;16.918;2022-12-29T12:10:58;5.10;;;2.95;;
48703;SDS011;34502;51.296;16.918;2022-12-29T12:13:42;7.50;;;2.85;;
48703;SDS011;34502;51.296;16.918;2022-12-29T12:16:24;5.15;;;2.72;;
48703;SDS011;34502;51.296;16.918;2022-12-29T12:19:06;6.45;;;3.00;;
48703;SDS011;34502;51.296;16.918;2022-12-29T12:21:56;3.70;;;2.60;;
48703;SDS011;34502;51.296;16.918;2022-12-29T12:24:37;6.88;;;3.22;;
48703;SDS011;34502;51.296;16.918;2022-12-29T12:29:46;6.25;;;3.67;;
48703;SDS011;34502;51.296;16.918;2022-12-29T12:32:39;5.55;;;2.85;;
48703;SDS011;34502;51.296;16.918;2022-12-29T12:54:09;7.43;;;4.18;;
48703;SDS011;34502;51.296;16.918;2022-12-29T12:56:50;7.53;;;4.30;;
48703;SDS011;34502;51.296;16.918;2022-12-29T13:18:40;7.38;;;3.55;;
48703;SDS011;34502;51.296;16.918;2022-12-29T13:21:26;6.07;;;3.60;;
48703;SDS011;34502;51.296;16.918;2022-12-29T13:24:19;6.90;;;3.90;;
48703;SDS011;34502;51.296;16.918;2022-12-29T13:27:12;4.13;;;3.00;;
48703;SDS011;34502;51.296;16.918;2022-12-29T13:38:08;6.63;;;3.67;;
48703;SDS011;34502;51.296;16.918;2022-12-29T13:40:39;5.63;;;3.33;;
48703;SDS011;34502;51.296;16.918;2022-12-29T13:43:08;6.03;;;4.32;;
48703;SDS011;34502;51.296;16.918;2022-12-29T13:45:34;8.93;;;3.90;;
48703;SDS011;34502;51.296;16.918;2022-12-29T13:48:13;10.43;;;4.38;;
48703;SDS011;34502;51.296;16.918;2022-12-29T13:50:41;8.25;;;4.03;;
48703;SDS011;34502;51.296;16.918;2022-12-29T13:56:26;9.27;;;4.50;;
48703;SDS011;34502;51.296;16.918;2022-12-29T14:02:02;10.60;;;5.03;;
48703;SDS011;34502;51.296;16.918;2022-12-29T14:04:36;10.57;;;4.97;;
48703;SDS011;34502;51.296;16.918;2022-12-29T14:07:22;8.65;;;5.47;;
48703;SDS011;34502;51.296;16.918;2022-12-29T14:09:51;11.73;;;5.50;;
48703;SDS011;34502;51.296;16.918;2022-12-29T14:12:38;10.73;;;5.07;;
48703;SDS011;34502;51.296;16.918;2022-12-29T14:17:35;9.85;;;4.88;;
48703;SDS011;34502;51.296;16.918;2022-12-29T14:20:02;10.05;;;6.07;;
48703;SDS011;34502;51.296;16.918;2022-12-29T14:22:29;7.55;;;4.97;;
48703;SDS011;34502;51.296;16.918;2022-12-29T14:24:56;9.02;;;5.85;;
48703;SDS011;34502;51.296;16.918;2022-12-29T14:29:54;10.07;;;5.72;;
48703;SDS011;34502;51.296;16.918;2022-12-29T14:34:49;9.52;;;5.85;;
48703;SDS011;34502;51.296;16.918;2022-12-29T14:40:16;11.45;;;6.20;;
48703;SDS011;34502;51.296;16.918;2022-12-29T14:42:42;10.75;;;5.85;;
48703;SDS011;34502;51.296;16.918;2022-12-29T14:47:39;12.00;;;6.55;;
48703;SDS011;34502;51.296;16.918;2022-12-29T14:50:17;8.30;;;5.47;;
48703;SDS011;34502;51.296;16.918;2022-12-29T14:58:38;8.63;;;5.63;;
48703;SDS011;34502;51.296;16.918;2022-12-29T15:01:13;13.00;;;6.20;;
48703;SDS011;34502;51.296;16.918;2022-12-29T15:03:50;10.38;;;6.18;;
48703;SDS011;34502;51.296;16.918;2022-12-29T15:06:18;8.98;;;5.70;;
48703;SDS011;34502;51.296;16.918;2022-12-29T15:08:51;11.88;;;6.43;;
48703;SDS011;34502;51.296;16.918;2022-12-29T15:11:24;9.50;;;5.93;;
48703;SDS011;34502;51.296;16.918;2022-12-29T15:17:08;9.35;;;5.85;;
48703;SDS011;34502;51.296;16.918;2022-12-29T15:19:52;9.98;;;5.38;;
48703;SDS011;34502;51.296;16.918;2022-12-29T15:22:19;9.63;;;5.95;;
48703;SDS011;34502;51.296;16.918;2022-12-29T15:24:45;14.43;;;6.20;;
48703;SDS011;34502;51.296;16.918;2022-12-29T15:27:15;10.32;;;6.32;;
48703;SDS011;34502;51.296;16.918;2022-12-29T15:29:58;13.10;;;7.45;;
48703;SDS011;34502;51.296;16.918;2022-12-29T15:32:29;11.70;;;7.32;;
48703;SDS011;34502;51.296;16.918;2022-12-29T15:35:21;11.38;;;7.38;;
48703;SDS011;34502;51.296;16.918;2022-12-29T15:37:47;14.27;;;8.45;;
48703;SDS011;34502;51.296;16.918;2022-12-29T15:40:27;16.15;;;7.82;;
48703;SDS011;34502;51.296;16.918;2022-12-29T15:45:26;10.40;;;7.03;;
48703;SDS011;34502;51.296;16.918;2022-12-29T15:47:57;10.45;;;5.97;;
48703;SDS011;34502;51.296;16.918;2022-12-29T15:50:27;9.40;;;5.75;;
48703;SDS011;34502;51.296;16.918;2022-12-29T15:52:55;7.97;;;5.60;;
48703;SDS011;34502;51.296;16.918;2022-12-29T15:58:02;11.05;;;6.28;;
48703;SDS011;34502;51.296;16.918;2022-12-29T16:03:00;14.05;;;7.70;;
48703;SDS011;34502;51.296;16.918;2022-12-29T16:05:32;12.65;;;6.95;;
48703;SDS011;34502;51.296;16.918;2022-12-29T16:08:19;12.77;;;6.90;;
48703;SDS011;34502;51.296;16.918;2022-12-29T16:10:54;10.48;;;6.90;;
48703;SDS011;34502;51.296;16.918;2022-12-29T16:13:25;10.60;;;6.72;;
48703;SDS011;34502;51.296;16.918;2022-12-29T16:16:07;10.65;;;7.40;;
48703;SDS011;34502;51.296;16.918;2022-12-29T16:18:53;13.90;;;7.60;;
48703;SDS011;34502;51.296;16.918;2022-12-29T16:21:21;13.27;;;7.70;;
48703;SDS011;34502;51.296;16.918;2022-12-29T16:23:59;12.00;;;8.10;;
48703;SDS011;34502;51.296;16.918;2022-12-29T16:26:27;12.38;;;7.30;;
48703;SDS011;34502;51.296;16.918;2022-12-29T16:29:00;10.82;;;7.55;;
48703;SDS011;34502;51.296;16.918;2022-12-29T16:31:47;17.50;;;9.73;;
48703;SDS011;34502;51.296;16.918;2022-12-29T16:34:25;13.18;;;8.38;;
48703;SDS011;34502;51.296;16.918;2022-12-29T16:37:19;12.05;;;7.80;;
48703;SDS011;34502;51.296;16.918;2022-12-29T16:39:55;11.73;;;8.00;;
48703;SDS011;34502;51.296;16.918;2022-12-29T16:42:34;11.63;;;6.68;;
48703;SDS011;34502;51.296;16.918;2022-12-29T16:47:47;12.90;;;7.90;;
48703;SDS011;34502;51.296;16.918;2022-12-29T16:50:30;12.55;;;7.55;;
48703;SDS011;34502;51.296;16.918;2022-12-29T16:53:00;12.75;;;7.57;;
48703;SDS011;34502;51.296;16.918;2022-12-29T16:55:28;13.30;;;8.65;;
48703;SDS011;34502;51.296;16.918;2022-12-29T16:57:54;16.00;;;9.38;;
48703;SDS011;34502;51.296;16.918;2022-12-29T17:00:25;16.83;;;9.30;;
48703;SDS011;34502;51.296;16.918;2022-12-29T17:02:54;17.23;;;9.73;;
48703;SDS011;34502;51.296;16.918;2022-12-29T17:05:21;18.02;;;10.07;;
48703;SDS011;34502;51.296;16.918;2022-12-29T17:07:47;16.13;;;10.65;;
48703;SDS011;34502;51.296;16.918;2022-12-29T17:10:14;19.67;;;11.05;;
48703;SDS011;34502;51.296;16.918;2022-12-29T17:12:41;23.23;;;11.50;;
48703;SDS011;34502;51.296;16.918;2022-12-29T17:17:45;27.77;;;13.02;;
48703;SDS011;34502;51.296;16.918;2022-12-29T17:22:42;19.45;;;11.40;;
48703;SDS011;34502;51.296;16.918;2022-12-29T17:25:15;23.35;;;13.05;;
48703;SDS011;34502;51.296;16.918;2022-12-29T17:27:44;20.63;;;11.48;;
48703;SDS011;34502;51.296;16.918;2022-12-29T17:30:17;22.08;;;10.98;;
48703;SDS011;34502;51.296;16.918;2022-12-29T17:32:51;18.73;;;11.88;;
48703;SDS011;34502;51.296;16.918;2022-12-29T17:35:19;19.95;;;10.60;;
48703;SDS011;34502;51.296;16.918;2022-12-29T17:37:46;13.85;;;9.88;;
48703;SDS011;34502;51.296;16.918;2022-12-29T17:40:16;15.43;;;8.95;;
48703;SDS011;34502;51.296;16.918;2022-12-29T17:42:45;15.38;;;9.38;;